»·PEaware :: DFGCW KCPR-KRKS

DFGCW :: KCPR-KRKS

FLIGHT INFORMATION

Flight Status: Arrived
Operator: Unknown
More flights by this operator :: More flights under this callsign
Pilot: Klaus A. (15485)
Aircraft: PILATUS PC-12 EAGLE
(PC12)
More flights by this aircraft type
Origin: KCPR Natrona Co Intl
United States
Destination: KRKS Rock Springs-Sweetwater
United States
More flights between these airports :: More routes between these airports
Route: +CKW V6 OCS
File this flight plan on PilotEdge
Remarks:
Altitude:
(Current/Filed)
16,000ft
Speed:
(Current/Filed)
230kts
Departed: 11-Apr-19 07:41 AM
Arrived: 11-Apr-19 08:29 AM
Distance/Time
Traveled:
140nm/0:48
Distance/Time
To Go:
Arrived

Flight Plot

Page will automatically refresh every two minutes.

Flight plan parsing failed; only flown route is shown


Map Options




Map Legend


Flown Route
Filed Route
Departure Airport
Arrival Airport
Navaid (VOR, NDB)
Fix

Horizontal Profiles

Position Reports

Time Latitude Longitude Heading Altitude Ground
Speed
11-Apr-19 07:23 42.902504 -106.458675 133 5353ft 0kts
11-Apr-19 07:24 42.902504 -106.458675 133 5353ft 0kts
11-Apr-19 07:25 42.902504 -106.458675 133 5353ft 0kts
11-Apr-19 07:26 42.902504 -106.458675 133 5353ft 0kts
11-Apr-19 07:27 42.902504 -106.458675 133 5353ft 0kts
11-Apr-19 07:28 42.902504 -106.458675 133 5353ft 0kts
11-Apr-19 07:29 42.902504 -106.458675 133 5353ft 0kts
11-Apr-19 07:30 42.903493 -106.459059 35 5353ft 11kts
11-Apr-19 07:31 42.906325 -106.455327 43 5352ft 12kts
11-Apr-19 07:32 42.906745 -106.452583 43 5352ft 6kts
11-Apr-19 07:33 42.907921 -106.451042 43 5352ft 0kts
11-Apr-19 07:34 42.907921 -106.451042 43 5352ft 0kts
11-Apr-19 07:35 42.907921 -106.451042 43 5352ft 0kts
11-Apr-19 07:36 42.907921 -106.451042 43 5352ft 0kts
11-Apr-19 07:37 42.907921 -106.451042 43 5352ft 0kts
11-Apr-19 07:38 42.907921 -106.451042 43 5352ft 0kts
11-Apr-19 07:39 42.908920 -106.450876 273 5352ft 12kts
11-Apr-19 07:40 42.909845 -106.488535 266 6172ft 141kts
11-Apr-19 07:41 42.896713 -106.546951 253 7819ft 172kts
11-Apr-19 07:42 42.880821 -106.605550 255 9808ft 161kts
11-Apr-19 07:43 42.849249 -106.650951 209 11290ft 185kts
11-Apr-19 07:44 42.804266 -106.688914 220 12549ft 197kts
11-Apr-19 07:45 42.757194 -106.729877 221 13830ft 202kts
11-Apr-19 07:46 42.709064 -106.770797 216 14993ft 206kts
11-Apr-19 07:47 42.660402 -106.813850 217 16023ft 209kts
11-Apr-19 07:48 42.607171 -106.859660 216 16168ft 245kts
11-Apr-19 07:49 42.547383 -106.911074 216 16164ft 261kts
11-Apr-19 07:50 42.485326 -106.964384 216 16163ft 266kts
11-Apr-19 07:51 42.422429 -107.018332 216 16137ft 268kts
11-Apr-19 07:52 42.359188 -107.072429 216 16135ft 268kts
11-Apr-19 07:53 42.296086 -107.126279 216 16136ft 268kts
11-Apr-19 07:54 42.233008 -107.179960 216 16137ft 269kts
11-Apr-19 07:55 42.169206 -107.234123 216 16136ft 271kts
11-Apr-19 07:56 42.105372 -107.288234 217 16137ft 272kts
11-Apr-19 07:57 42.041011 -107.342780 216 16137ft 273kts
11-Apr-19 07:58 41.976523 -107.397199 216 16137ft 274kts
11-Apr-19 07:59 41.912037 -107.451465 216 16129ft 274kts
11-Apr-19 08:00 41.847154 -107.505394 216 16122ft 273kts
11-Apr-19 08:01 41.782852 -107.559227 216 16123ft 272kts
11-Apr-19 08:02 41.736710 -107.631872 263 16119ft 251kts
11-Apr-19 08:03 41.734030 -107.722140 274 16125ft 245kts
11-Apr-19 08:04 41.732285 -107.813409 267 16121ft 248kts
11-Apr-19 08:05 41.722324 -107.904672 267 16124ft 248kts
11-Apr-19 08:06 41.712655 -107.996103 268 16124ft 247kts
11-Apr-19 08:07 41.702906 -108.088347 268 16001ft 250kts
11-Apr-19 08:08 41.693193 -108.179395 268 16036ft 235kts
11-Apr-19 08:09 41.684729 -108.257808 269 16054ft 198kts
11-Apr-19 08:10 41.671703 -108.330665 256 16057ft 207kts
11-Apr-19 08:11 41.651600 -108.403036 257 16057ft 208kts
11-Apr-19 08:12 41.631789 -108.476028 257 16056ft 209kts
11-Apr-19 08:13 41.611525 -108.550805 256 15464ft 225kts
11-Apr-19 08:14 41.591009 -108.626095 256 14264ft 209kts
11-Apr-19 08:15 41.571328 -108.698285 255 12788ft 211kts
11-Apr-19 08:16 41.551215 -108.771758 254 11294ft 211kts
11-Apr-19 08:17 41.572041 -108.814953 30 9793ft 208kts
11-Apr-19 08:18 41.573702 -108.742890 97 9280ft 185kts
11-Apr-19 08:19 41.546121 -108.702223 213 9304ft 172kts
11-Apr-19 08:20 41.542386 -108.757792 281 9296ft 162kts
11-Apr-19 08:21 41.548447 -108.805799 286 9277ft 111kts
11-Apr-19 08:22 41.556557 -108.850595 284 8682ft 123kts
11-Apr-19 08:23 41.564383 -108.894417 284 8688ft 120kts
11-Apr-19 08:24 41.572184 -108.938219 283 8414ft 126kts
11-Apr-19 08:25 41.579848 -108.981410 282 7786ft 116kts
11-Apr-19 08:26 41.587387 -109.023679 280 7179ft 112kts
11-Apr-19 08:27 41.593317 -109.057540 284 6765ft 46kts
11-Apr-19 08:28 41.595081 -109.064671 30 6764ft 11kts
11-Apr-19 08:29 41.595828 -109.065302 280 6764ft 0kts
11-Apr-19 08:30 41.596656 -109.070045 283 6764ft 14kts
11-Apr-19 08:31 41.597566 -109.071884 101 6765ft 0kts
11-Apr-19 08:32 41.597566 -109.071884 101 6765ft 0kts
11-Apr-19 08:33 41.597566 -109.071884 101 6765ft 0kts
11-Apr-19 08:34 41.597566 -109.071884 101 6765ft 0kts

Navigation Log

Ident Type
Flight plan parsing failed, navigation log unavailable